createdAt,value
2023-02-07T00:00:35.909Z,103860.41
2023-02-07T00:03:03.860Z,103863.19
2023-02-07T00:05:31.824Z,103857.19
2023-02-07T00:08:01.121Z,103849.53
2023-02-07T00:10:28.991Z,103848.81
2023-02-07T00:12:56.838Z,103847.19
2023-02-07T00:15:24.714Z,103834.06
2023-02-07T00:17:52.635Z,103835.03
2023-02-07T00:20:21.209Z,103829.88
2023-02-07T00:22:49.142Z,103829.94
2023-02-07T00:25:18.680Z,103827.31
2023-02-07T00:27:46.663Z,103823.81
2023-02-07T00:30:15.149Z,103831.81
2023-02-07T00:32:43.090Z,103833.66
2023-02-07T00:35:11.024Z,103831.03
2023-02-07T00:37:38.909Z,103832.03
2023-02-07T00:40:07.491Z,103824.91
2023-02-07T00:42:36.743Z,103836.44
2023-02-07T00:45:04.768Z,103825.72
2023-02-07T00:47:32.626Z,103824.84
2023-02-07T00:50:00.589Z,103826.66
2023-02-07T00:52:28.539Z,103833.69
2023-02-07T00:54:56.419Z,103828.25
2023-02-07T00:57:24.320Z,103832.75
2023-02-07T00:59:53.584Z,103826.53
2023-02-07T01:02:21.489Z,103829.09
2023-02-07T01:04:49.439Z,103833.47
2023-02-07T01:07:17.403Z,103833.44
2023-02-07T01:09:45.258Z,103833.38
2023-02-07T01:12:13.151Z,103831.53
2023-02-07T01:14:41.013Z,103839.59
2023-02-07T01:17:10.293Z,103827.25
2023-02-07T01:19:38.177Z,103831.66
2023-02-07T01:22:06.107Z,103829.91
2023-02-07T01:24:35.257Z,103817.59
2023-02-07T01:27:03.158Z,103830.81
2023-02-07T01:29:31.084Z,103831.75
2023-02-07T01:31:59.060Z,103831.69
2023-02-07T01:34:28.365Z,103842.31
2023-02-07T01:36:56.279Z,103840.47
2023-02-07T01:39:24.177Z,103829.88
2023-02-07T01:41:52.060Z,103840.47
2023-02-07T01:44:57.375Z,103843.97
2023-02-07T01:47:25.468Z,103838.59
2023-02-07T01:49:55.606Z,103835.03
2023-02-07T01:52:25.558Z,103826.84
2023-02-07T01:54:58.025Z,103826.69
2023-02-07T01:57:25.993Z,103787.19
2023-02-07T01:59:55.002Z,103843.22
2023-02-07T02:02:23.189Z,103846.50
2023-02-07T02:04:51.617Z,103855.16
2023-02-07T02:07:21.023Z,103852.28
2023-02-07T02:09:48.928Z,103842.28
2023-02-07T02:12:25.821Z,103830.66
2023-02-07T02:15:14.303Z,103854.63
2023-02-07T02:17:51.658Z,103852.81
2023-02-07T02:20:41.806Z,103831.28
2023-02-07T02:23:15.487Z,103843.78
2023-02-07T02:26:06.940Z,103826.69
2023-02-07T02:29:07.380Z,103844.34
2023-02-07T02:31:57.275Z,103841.63
2023-02-07T02:34:27.813Z,103841.56
2023-02-07T02:36:59.191Z,103840.66
2023-02-07T02:39:29.971Z,103834.44
2023-02-07T02:42:00.707Z,103828.16
2023-02-07T02:44:30.518Z,103829.88
2023-02-07T02:46:58.918Z,103828.03
2023-02-07T02:49:30.562Z,103829.75
2023-02-07T02:51:58.600Z,103833.19
2023-02-07T02:54:28.357Z,103838.34
2023-02-07T02:57:12.377Z,103833.88
2023-02-07T02:59:46.189Z,103817.91
2023-02-07T03:02:21.612Z,103816.06
2023-02-07T03:05:07.593Z,103812.34
2023-02-07T03:07:43.686Z,103822.34
2023-02-07T03:10:16.071Z,103796.31
2023-02-07T03:12:46.551Z,103822.00
2023-02-07T03:15:17.000Z,103822.50
2023-02-07T03:17:46.572Z,103810.81
2023-02-07T03:20:19.427Z,103820.50
2023-02-07T03:22:47.281Z,103819.31
2023-02-07T03:25:15.267Z,103838.75
2023-02-07T03:27:43.337Z,103841.25
2023-02-07T03:30:12.706Z,103842.00
2023-02-07T03:32:42.103Z,103832.31
2023-02-07T03:35:11.544Z,103817.22
2023-02-07T03:37:42.034Z,103822.03
2023-02-07T03:40:11.099Z,103826.41
2023-02-07T03:42:39.916Z,103818.59
2023-02-07T03:45:09.236Z,103818.81
2023-02-07T03:47:37.163Z,103827.81
2023-02-07T03:50:05.319Z,103824.53
2023-02-07T03:52:33.175Z,103821.22
2023-02-07T03:55:02.416Z,103826.72
2023-02-07T03:57:30.355Z,103817.19
2023-02-07T03:59:58.227Z,103820.91
2023-02-07T04:02:26.157Z,103826.34
2023-02-07T04:04:54.034Z,103824.75
2023-02-07T04:07:21.953Z,103820.56
2023-02-07T04:09:49.854Z,103822.50
2023-02-07T04:12:19.171Z,103827.00
2023-02-07T04:14:47.118Z,103829.69
2023-02-07T04:17:15.024Z,103839.41
2023-02-07T04:19:42.976Z,103839.44
2023-02-07T04:22:11.514Z,103841.16
2023-02-07T04:24:39.455Z,103851.66
2023-02-07T04:27:07.369Z,103853.28
2023-02-07T04:29:36.726Z,103852.25
2023-02-07T04:32:04.667Z,103854.75
2023-02-07T04:34:32.628Z,103856.34
2023-02-07T04:37:00.551Z,103857.03
2023-02-07T04:39:28.510Z,103853.31
2023-02-07T04:41:56.404Z,103857.31
2023-02-07T04:44:24.483Z,103860.53
2023-02-07T04:46:53.752Z,103863.00
2023-02-07T04:49:21.655Z,103871.69
2023-02-07T04:51:49.585Z,103869.84
2023-02-07T04:54:17.503Z,103865.34
2023-02-07T04:56:45.362Z,103860.94
2023-02-07T04:59:13.239Z,103853.16
2023-02-07T05:01:41.101Z,103868.16
2023-02-07T05:04:10.467Z,103872.66
2023-02-07T05:06:38.382Z,103804.81
2023-02-07T05:09:06.327Z,103869.97
2023-02-07T05:11:34.208Z,103867.28
2023-02-07T05:14:02.079Z,103868.94
2023-02-07T05:16:30.002Z,103875.75
2023-02-07T05:18:57.882Z,103863.91
2023-02-07T05:21:27.110Z,103870.56
2023-02-07T05:23:55.026Z,103868.47
2023-02-07T05:26:22.963Z,103865.44
2023-02-07T05:28:50.800Z,103872.97
2023-02-07T05:31:18.778Z,103870.97
2023-02-07T05:33:45.673Z,103865.44
2023-02-07T05:36:13.565Z,103863.41
2023-02-07T05:38:43.042Z,103858.78
2023-02-07T05:41:10.909Z,103869.94
2023-02-07T05:43:38.797Z,103862.66
2023-02-07T05:46:07.003Z,103859.06
2023-02-07T05:48:34.886Z,103861.53
2023-02-07T05:51:02.742Z,103872.84
2023-02-07T05:53:30.650Z,103870.09
2023-02-07T05:55:59.920Z,103871.78
2023-02-07T05:58:27.832Z,103864.72
2023-02-07T06:00:56.292Z,103860.22
2023-02-07T06:03:24.335Z,103871.53
2023-02-07T06:05:52.213Z,103872.97
2023-02-07T06:08:20.116Z,103878.06
2023-02-07T06:10:49.266Z,103880.44
2023-02-07T06:13:18.541Z,103878.44
2023-02-07T06:15:46.460Z,103884.44
2023-02-07T06:18:14.371Z,103885.13
2023-02-07T06:20:42.235Z,103878.94
2023-02-07T06:23:10.131Z,103881.47
2023-02-07T06:25:38.191Z,103877.94
2023-02-07T06:28:06.445Z,103872.69
2023-02-07T06:30:35.801Z,103877.94
2023-02-07T06:33:03.682Z,103877.91
2023-02-07T06:35:31.534Z,103875.16
2023-02-07T06:37:59.419Z,103881.34
2023-02-07T06:40:27.267Z,103887.44
2023-02-07T06:42:55.521Z,103887.34
2023-02-07T06:45:23.407Z,103889.84
2023-02-07T06:47:52.650Z,103887.09
2023-02-07T06:50:20.573Z,103892.25
2023-02-07T06:52:48.447Z,103898.16
2023-02-07T06:55:16.479Z,103912.91
2023-02-07T06:57:44.368Z,103915.28
2023-02-07T07:00:13.209Z,103902.81
2023-02-07T07:02:41.162Z,103886.69
2023-02-07T07:05:10.579Z,103898.94
2023-02-07T07:07:38.498Z,103892.78
2023-02-07T07:10:07.388Z,103904.16
2023-02-07T07:12:35.324Z,103906.81
2023-02-07T07:15:03.239Z,103905.16
2023-02-07T07:17:31.134Z,103911.28
2023-02-07T07:19:59.837Z,103902.59
2023-02-07T07:22:29.370Z,103901.00
2023-02-07T07:24:57.362Z,103896.72
2023-02-07T07:27:25.216Z,103892.41
2023-02-07T07:29:53.123Z,103878.59
2023-02-07T07:32:33.307Z,103885.66
2023-02-07T07:35:01.720Z,103892.75
2023-02-07T07:37:30.986Z,103893.47
2023-02-07T07:39:58.855Z,103909.25
2023-02-07T07:42:26.860Z,103898.72
2023-02-07T07:44:54.788Z,103890.75
2023-02-07T07:47:22.623Z,103902.13
2023-02-07T07:49:51.146Z,103900.28
2023-02-07T07:52:19.791Z,103910.69
2023-02-07T07:54:49.074Z,103903.72
2023-02-07T07:57:17.020Z,103904.53
2023-02-07T07:59:47.665Z,103903.59
2023-02-07T08:02:15.549Z,103897.47
2023-02-07T08:04:43.451Z,103907.22
2023-02-07T08:07:11.466Z,103902.66
2023-02-07T08:09:39.545Z,103914.47
2023-02-07T08:12:14.279Z,103905.88
2023-02-07T08:14:42.162Z,103919.19
2023-02-07T08:17:10.085Z,103918.59
2023-02-07T08:19:38.679Z,103932.84
2023-02-07T08:22:06.620Z,103912.94
2023-02-07T08:24:36.007Z,103917.09
2023-02-07T08:27:03.967Z,103918.47
2023-02-07T08:29:36.506Z,103911.91
2023-02-07T08:32:05.517Z,103921.84
2023-02-07T08:34:37.473Z,103915.97
2023-02-07T08:37:06.387Z,103903.75
2023-02-07T08:39:35.245Z,103907.41
2023-02-07T08:42:03.188Z,103896.00
2023-02-07T08:44:31.098Z,103929.97
2023-02-07T08:47:00.475Z,103906.19
2023-02-07T08:49:28.504Z,103921.72
2023-02-07T08:51:56.740Z,103923.72
2023-02-07T08:54:24.597Z,103924.91
2023-02-07T08:56:52.476Z,103914.63
2023-02-07T08:59:20.372Z,103920.09
2023-02-07T09:01:48.335Z,103916.78
2023-02-07T09:04:17.759Z,103921.38
2023-02-07T09:06:45.663Z,103924.22
2023-02-07T09:09:13.643Z,103920.84
2023-02-07T09:11:41.571Z,103919.31
2023-02-07T09:14:09.532Z,103916.81
2023-02-07T09:16:37.983Z,103929.47
2023-02-07T09:19:06.461Z,103903.09
2023-02-07T09:21:37.533Z,103914.88
2023-02-07T09:24:05.544Z,103906.22
2023-02-07T09:26:35.364Z,103909.94
2023-02-07T09:29:03.810Z,103911.84
2023-02-07T09:31:32.108Z,103910.34
2023-02-07T09:34:00.231Z,103905.38
2023-02-07T09:36:29.420Z,103905.59
2023-02-07T09:38:58.895Z,103906.66
2023-02-07T09:41:31.533Z,103907.69
2023-02-07T09:44:06.432Z,103905.28
2023-02-07T09:46:36.976Z,103908.09
2023-02-07T09:49:07.295Z,103905.66
2023-02-07T09:51:35.722Z,103902.31
2023-02-07T09:54:06.563Z,103907.75
2023-02-07T09:56:34.937Z,103899.22
2023-02-07T09:59:05.223Z,103895.94
2023-02-07T10:01:35.587Z,103892.59
2023-02-07T10:04:09.488Z,103896.38
2023-02-07T10:06:37.396Z,103887.84
2023-02-07T10:09:07.184Z,103867.63
2023-02-07T10:11:41.942Z,103886.56
2023-02-07T10:14:20.873Z,103883.28
2023-02-07T10:17:08.345Z,103886.22
2023-02-07T10:19:45.072Z,103884.69
2023-02-07T10:22:17.808Z,103885.81
2023-02-07T10:24:56.385Z,103886.97
2023-02-07T10:27:29.688Z,103888.91
2023-02-07T10:29:59.255Z,103848.94
2023-02-07T10:32:27.949Z,103873.41
2023-02-07T10:34:57.383Z,103884.34
2023-02-07T10:37:26.199Z,103892.47
2023-02-07T10:40:00.975Z,103882.78
2023-02-07T10:42:28.871Z,103890.13
2023-02-07T10:44:57.138Z,103896.47
2023-02-07T10:47:26.238Z,103894.84
2023-02-07T10:49:55.457Z,103901.25
2023-02-07T10:52:28.668Z,103902.31
2023-02-07T10:54:58.821Z,103904.28
2023-02-07T10:57:27.038Z,103890.22
2023-02-07T11:00:06.623Z,103895.91
2023-02-07T11:03:02.030Z,103883.94
2023-02-07T11:05:37.548Z,103894.88
2023-02-07T11:08:08.690Z,103866.81
2023-02-07T11:10:39.366Z,103888.75
2023-02-07T11:13:12.215Z,103885.69
2023-02-07T11:15:46.604Z,103880.63
2023-02-07T11:18:44.475Z,103862.97
2023-02-07T11:21:28.938Z,103862.91
2023-02-07T11:23:59.939Z,103855.63
2023-02-07T11:26:29.324Z,103874.94
2023-02-07T11:29:08.031Z,103872.03
2023-02-07T11:31:37.323Z,103870.03
2023-02-07T11:34:20.033Z,103870.59
2023-02-07T11:36:47.939Z,103865.94
2023-02-07T11:39:17.116Z,103863.09
2023-02-07T11:42:00.432Z,103878.00
2023-02-07T11:44:30.482Z,103862.69
2023-02-07T11:46:59.683Z,103856.22
2023-02-07T11:49:28.675Z,103850.38
2023-02-07T11:51:57.627Z,103848.00
2023-02-07T11:54:25.501Z,103845.03
2023-02-07T11:56:55.605Z,103845.19
2023-02-07T11:59:24.430Z,103850.75
2023-02-07T12:01:53.221Z,103843.91
2023-02-07T12:04:21.925Z,103844.34
2023-02-07T12:06:53.898Z,103852.84
2023-02-07T12:09:25.787Z,103856.84
2023-02-07T12:11:55.799Z,103856.22
2023-02-07T12:14:30.449Z,103857.31
2023-02-07T12:17:00.133Z,103845.75
2023-02-07T12:19:29.811Z,103851.94
2023-02-07T12:21:59.893Z,103835.72
2023-02-07T12:24:30.091Z,103847.75
2023-02-07T12:27:01.159Z,103825.53
2023-02-07T12:29:34.802Z,103827.13
2023-02-07T12:32:05.899Z,103827.66
2023-02-07T12:34:35.584Z,103825.19
2023-02-07T12:37:06.597Z,103836.09
2023-02-07T12:39:36.309Z,103830.75
2023-02-07T12:42:14.585Z,103828.03
2023-02-07T12:44:44.050Z,103829.97
2023-02-07T12:47:17.262Z,103833.78
2023-02-07T12:50:02.430Z,103834.03
2023-02-07T12:52:35.928Z,103829.88
2023-02-07T12:55:10.601Z,103811.44
2023-02-07T12:57:43.788Z,103815.50
2023-02-07T13:00:14.025Z,103809.13
2023-02-07T13:02:51.413Z,103790.72
2023-02-07T13:05:34.157Z,103800.75
2023-02-07T13:08:05.120Z,103778.94
2023-02-07T13:10:36.542Z,103797.69
2023-02-07T13:13:07.685Z,103793.91
2023-02-07T13:15:38.720Z,103788.44
2023-02-07T13:18:08.631Z,103796.72
2023-02-07T13:20:52.565Z,103791.25
2023-02-07T13:23:21.455Z,103798.81
2023-02-07T13:25:50.782Z,103790.63
2023-02-07T13:28:26.516Z,103779.84
2023-02-07T13:30:54.876Z,103777.09
2023-02-07T13:33:28.648Z,103773.44
2023-02-07T13:35:57.634Z,103781.19
2023-02-07T13:38:35.310Z,103755.41
2023-02-07T13:41:04.923Z,103750.63
2023-02-07T13:43:41.089Z,103761.41
2023-02-07T13:46:12.898Z,103759.44
2023-02-07T13:48:43.136Z,103752.06
2023-02-07T13:51:14.260Z,103753.50
2023-02-07T13:53:46.322Z,103751.84
2023-02-07T13:56:29.090Z,103732.53
2023-02-07T13:59:16.105Z,103756.16
2023-02-07T14:01:50.301Z,103737.91
2023-02-07T14:04:18.240Z,103751.94
2023-02-07T14:06:47.557Z,103751.13
2023-02-07T14:09:18.210Z,103730.16
2023-02-07T14:11:47.329Z,103748.91
2023-02-07T14:14:24.728Z,103730.81
2023-02-07T14:16:53.254Z,103720.75
2023-02-07T14:19:49.663Z,103730.69
2023-02-07T14:22:21.583Z,103734.28
2023-02-07T14:24:51.092Z,103736.72
2023-02-07T14:27:30.193Z,103736.56
2023-02-07T14:30:19.075Z,103739.88
2023-02-07T14:33:09.835Z,103719.16
2023-02-07T14:35:38.329Z,103738.88
2023-02-07T14:38:27.488Z,103742.69
2023-02-07T14:41:09.568Z,103740.22
2023-02-07T14:43:45.632Z,103725.47
2023-02-07T14:46:16.480Z,103745.19
2023-02-07T14:48:49.032Z,103743.59
2023-02-07T14:51:18.608Z,103737.50
2023-02-07T14:53:47.390Z,103733.16
2023-02-07T14:56:24.984Z,103719.88
2023-02-07T14:58:52.929Z,103742.09
2023-02-07T15:01:23.979Z,103740.38
2023-02-07T15:04:03.644Z,103747.50
2023-02-07T15:06:37.831Z,103741.28
2023-02-07T15:09:05.737Z,103747.59
2023-02-07T15:11:33.840Z,103749.41
2023-02-07T15:14:05.153Z,103737.88
2023-02-07T15:16:38.313Z,103747.66
2023-02-07T15:19:10.107Z,103722.81
2023-02-07T15:21:41.698Z,103753.03
2023-02-07T15:24:14.444Z,103734.44
2023-02-07T15:26:42.310Z,103747.78
2023-02-07T15:29:20.755Z,103755.84
2023-02-07T15:31:50.196Z,103746.97
2023-02-07T15:34:20.747Z,103752.41
2023-02-07T15:36:49.358Z,103752.44
2023-02-07T15:39:18.267Z,103758.72
2023-02-07T15:41:46.581Z,103734.78
2023-02-07T15:44:21.151Z,103754.34
2023-02-07T15:46:51.313Z,103757.91
2023-02-07T15:49:32.987Z,103747.25
2023-02-07T15:52:07.396Z,103746.38
2023-02-07T15:54:38.424Z,103740.19
2023-02-07T15:57:06.306Z,103734.84
2023-02-07T15:59:34.644Z,103733.97
2023-02-07T16:02:04.156Z,103742.84
2023-02-07T16:04:32.633Z,103744.63
2023-02-07T16:07:01.863Z,103738.44
2023-02-07T16:09:40.609Z,103739.31
2023-02-07T16:12:33.614Z,103734.88
2023-02-07T16:15:01.960Z,103738.47
2023-02-07T16:17:41.986Z,103713.66
2023-02-07T16:20:14.312Z,103746.50
2023-02-07T16:22:43.258Z,103750.97
2023-02-07T16:25:15.119Z,103752.75
2023-02-07T16:27:44.262Z,103751.84
2023-02-07T16:30:15.359Z,103751.88
2023-02-07T16:32:44.665Z,103752.78
2023-02-07T16:35:17.892Z,103748.34
2023-02-07T16:37:45.880Z,103737.69
2023-02-07T16:40:13.891Z,103735.91
2023-02-07T16:42:42.529Z,103740.38
2023-02-07T16:45:16.887Z,103738.59
2023-02-07T16:47:46.195Z,103732.41
2023-02-07T16:50:16.104Z,103732.41
2023-02-07T16:52:44.126Z,103740.38
2023-02-07T16:55:12.056Z,103740.38
2023-02-07T16:57:39.952Z,103740.38
2023-02-07T17:00:08.739Z,103745.69
2023-02-07T17:02:36.653Z,103742.16
2023-02-07T17:05:06.339Z,103748.31
2023-02-07T17:07:34.428Z,103740.31
2023-02-07T17:10:02.359Z,103756.28
2023-02-07T17:12:30.286Z,103755.38
2023-02-07T17:14:58.207Z,103742.94
2023-02-07T17:17:26.127Z,103747.38
2023-02-07T17:19:53.992Z,103750.00
2023-02-07T17:22:23.369Z,103752.69
2023-02-07T17:24:53.716Z,103752.63
2023-02-07T17:27:21.575Z,103761.53
2023-02-07T17:29:49.466Z,103761.50
2023-02-07T17:32:17.331Z,103757.94
2023-02-07T17:34:45.823Z,103755.25
2023-02-07T17:37:13.963Z,103754.38
2023-02-07T17:39:43.344Z,103755.25
2023-02-07T17:42:11.227Z,103752.56
2023-02-07T17:44:40.241Z,103748.09
2023-02-07T17:47:08.112Z,103756.06
2023-02-07T17:49:36.012Z,103756.94
2023-02-07T17:52:03.956Z,103757.78
2023-02-07T17:54:31.970Z,103747.09
2023-02-07T17:57:01.279Z,103755.06
2023-02-07T17:59:29.199Z,103758.59
2023-02-07T18:01:58.101Z,103747.91
2023-02-07T18:04:25.953Z,103739.84
2023-02-07T18:06:53.913Z,103751.38
2023-02-07T18:09:21.788Z,103751.31
2023-02-07T18:11:49.845Z,103744.09
2023-02-07T18:14:19.135Z,103734.34
2023-02-07T18:16:47.064Z,103721.78
2023-02-07T18:19:16.224Z,103741.25
2023-02-07T18:21:44.669Z,103747.38
2023-02-07T18:24:13.146Z,103761.38
2023-02-07T18:26:40.991Z,103758.53
2023-02-07T18:29:09.308Z,103763.69
2023-02-07T18:31:38.678Z,103758.22
2023-02-07T18:34:06.707Z,103763.34
2023-02-07T18:36:40.329Z,103750.78
2023-02-07T18:39:08.948Z,103739.09
2023-02-07T18:41:36.908Z,103747.88
2023-02-07T18:44:04.938Z,103750.41
2023-02-07T18:46:32.872Z,103752.09
2023-02-07T18:49:02.186Z,103747.53
2023-02-07T18:51:30.072Z,103727.88
2023-02-07T18:53:57.988Z,103755.34
2023-02-07T18:56:26.801Z,103756.16
2023-02-07T18:58:56.701Z,103757.00
2023-02-07T19:01:28.688Z,103768.41
2023-02-07T19:03:58.243Z,103762.97
2023-02-07T19:06:29.086Z,103762.03
2023-02-07T19:08:57.092Z,103768.94
2023-02-07T19:11:24.967Z,103766.97
2023-02-07T19:13:52.875Z,103770.34
2023-02-07T19:16:21.844Z,103777.22
2023-02-07T19:18:49.749Z,103765.56
2023-02-07T19:21:20.799Z,103747.63
2023-02-07T19:23:50.589Z,103773.25
2023-02-07T19:26:24.453Z,103779.34
2023-02-07T19:28:52.720Z,103784.53
2023-02-07T19:31:24.759Z,103774.75
2023-02-07T19:33:53.444Z,103772.91
2023-02-07T19:36:22.322Z,103771.13
2023-02-07T19:38:54.339Z,103768.47
2023-02-07T19:41:22.636Z,103768.38
2023-02-07T19:43:50.619Z,103767.38
2023-02-07T19:46:18.496Z,103770.84
2023-02-07T19:48:46.549Z,103777.78
2023-02-07T19:51:15.952Z,103780.34
2023-02-07T19:53:44.067Z,103769.56
2023-02-07T19:56:13.361Z,103777.56
2023-02-07T19:58:44.757Z,103774.72
2023-02-07T20:01:12.770Z,103777.22
2023-02-07T20:03:40.709Z,103782.31
2023-02-07T20:06:12.310Z,103792.06
2023-02-07T20:08:41.026Z,103790.25
2023-02-07T20:11:10.842Z,103798.19
2023-02-07T20:13:41.811Z,103783.75
2023-02-07T20:16:11.229Z,103792.59
2023-02-07T20:18:39.226Z,103802.13
2023-02-07T20:21:11.887Z,103797.59
2023-02-07T20:23:44.246Z,103798.41
2023-02-07T20:26:13.932Z,103800.03
2023-02-07T20:28:43.267Z,103799.91
2023-02-07T20:31:12.236Z,103801.56
2023-02-07T20:33:40.913Z,103781.00
2023-02-07T20:36:09.317Z,103804.91
2023-02-07T20:38:37.345Z,103796.00
2023-02-07T20:41:08.517Z,103803.81
2023-02-07T20:43:36.591Z,103810.72
2023-02-07T20:46:07.971Z,103807.25
2023-02-07T20:48:36.122Z,103810.81
2023-02-07T20:51:09.777Z,103806.47
2023-02-07T20:53:39.209Z,103803.91
2023-02-07T20:56:11.900Z,103799.38
2023-02-07T20:58:39.953Z,103806.47
2023-02-07T21:01:10.740Z,103794.88
2023-02-07T21:03:38.778Z,103801.84
2023-02-07T21:06:07.006Z,103809.78
2023-02-07T21:08:35.267Z,103805.34
2023-02-07T21:11:03.340Z,103816.72
2023-02-07T21:13:31.242Z,103809.56
2023-02-07T21:16:03.276Z,103811.34
2023-02-07T21:18:33.049Z,103812.31
2023-02-07T21:21:00.995Z,103816.78
2023-02-07T21:23:28.860Z,103819.31
2023-02-07T21:25:56.732Z,103807.59
2023-02-07T21:28:24.637Z,103823.34
2023-02-07T21:30:52.614Z,103816.94
2023-02-07T21:33:20.550Z,103819.38
2023-02-07T21:35:49.925Z,103808.53
2023-02-07T21:38:17.871Z,103818.97
2023-02-07T21:40:45.781Z,103827.66
2023-02-07T21:43:13.648Z,103830.19
2023-02-07T21:45:41.529Z,103822.16
2023-02-07T21:48:09.509Z,103823.88
2023-02-07T21:50:37.638Z,103831.78
2023-02-07T21:53:07.053Z,103832.69
2023-02-07T21:55:35.612Z,103836.34
2023-02-07T21:58:03.513Z,103827.56
2023-02-07T22:00:31.458Z,103839.09
2023-02-07T22:02:59.400Z,103832.00
2023-02-07T22:05:27.320Z,103830.03
2023-02-07T22:07:55.197Z,103842.31
2023-02-07T22:10:25.087Z,103843.09
2023-02-07T22:12:52.969Z,103837.56
2023-02-07T22:15:21.160Z,103836.59
2023-02-07T22:17:49.084Z,103839.13
2023-02-07T22:20:17.155Z,103839.91
2023-02-07T22:22:45.062Z,103841.50
2023-02-07T22:25:13.000Z,103843.88
2023-02-07T22:27:42.245Z,103838.41
2023-02-07T22:30:11.571Z,103828.53
2023-02-07T22:32:39.498Z,103825.63
2023-02-07T22:35:07.775Z,103832.59
2023-02-07T22:37:35.703Z,103828.88
2023-02-07T22:40:03.732Z,103834.09
2023-02-07T22:42:33.243Z,103824.25
2023-02-07T22:45:02.521Z,103822.41
2023-02-07T22:47:30.481Z,103825.75
2023-02-07T22:49:58.367Z,103816.00
2023-02-07T22:52:26.250Z,103810.75
2023-02-07T22:54:54.167Z,103813.38
2023-02-07T22:57:22.069Z,103810.63
2023-02-07T22:59:49.924Z,103813.28
2023-02-07T23:02:19.193Z,103808.91
2023-02-07T23:04:47.082Z,103804.47
2023-02-07T23:07:14.984Z,103800.09
2023-02-07T23:09:42.894Z,103800.97
2023-02-07T23:12:10.856Z,103809.84
2023-02-07T23:14:39.015Z,103812.53
2023-02-07T23:17:06.936Z,103804.72
2023-02-07T23:19:36.211Z,103819.91
2023-02-07T23:22:04.168Z,103814.00
2023-02-07T23:24:32.106Z,103816.81
2023-02-07T23:27:00.026Z,103805.59
2023-02-07T23:29:28.070Z,103811.94
2023-02-07T23:31:56.012Z,103730.63
2023-02-07T23:34:23.944Z,103811.03
2023-02-07T23:36:53.189Z,103808.28
2023-02-07T23:39:21.092Z,103797.50
2023-02-07T23:41:49.040Z,103807.06
2023-02-07T23:44:17.246Z,103806.81
2023-02-07T23:46:45.165Z,103791.66
2023-02-07T23:49:13.386Z,103801.13
2023-02-07T23:51:41.480Z,103789.50
2023-02-07T23:54:10.739Z,103785.81
2023-02-07T23:56:38.635Z,103794.47
2023-02-07T23:59:06.737Z,103792.56
